TimePST,TemperatureF,Dew PointF,Humidity,Sea Level PressureIn,VisibilityMPH,Wind Direction,Wind SpeedMPH,Gust SpeedMPH,PrecipitationIn,Events,Conditions,WindDirDegrees,DateUTC
12:53 AM,32.0,30.0,92,30.12,0.8,SE,5.8,-,N/A,,Mist,130,2013-01-11 08:53:00
1:48 AM,32.0,30.2,93,30.14,2.0,East,3.5,-,N/A,,Overcast,100,2013-01-11 09:48:00
1:53 AM,32.0,30.0,92,30.14,2.0,ESE,3.5,-,N/A,,Overcast,110,2013-01-11 09:53:00
2:53 AM,32.0,30.0,92,30.15,3.0,Calm,Calm,-,N/A,,Mostly Cloudy,0,2013-01-11 10:53:00
3:07 AM,32.0,28.4,87,30.15,5.0,Calm,Calm,-,N/A,,Scattered Clouds,0,2013-01-11 11:07:00
3:53 AM,30.9,27.0,85,30.16,4.0,Calm,Calm,-,N/A,,Mostly Cloudy,0,2013-01-11 11:53:00
4:51 AM,28.4,26.6,93,30.17,1.5,SE,4.6,-,N/A,,Scattered Clouds,140,2013-01-11 12:51:00
4:53 AM,30.0,27.0,88,30.17,3.0,SE,4.6,-,N/A,,Scattered Clouds,140,2013-01-11 12:53:00
5:03 AM,28.4,26.6,93,30.18,3.0,SE,4.6,-,N/A,,Mostly Cloudy,140,2013-01-11 13:03:00
5:07 AM,28.4,26.6,93,30.18,1.8,SE,5.8,-,N/A,,Mostly Cloudy,130,2013-01-11 13:07:00
5:51 AM,30.2,26.6,86,30.19,0.5,SE,4.6,-,N/A,Fog,Light Freezing Fog,140,2013-01-11 13:51:00
5:53 AM,30.0,27.0,88,30.19,0.5,SE,3.5,-,N/A,Fog,Light Freezing Fog,130,2013-01-11 13:53:00
6:41 AM,28.4,26.6,93,30.21,1.0,ESE,3.5,-,N/A,,Mist,120,2013-01-11 14:41:00
6:53 AM,30.0,27.0,88,30.22,1.0,East,3.5,-,N/A,,Mostly Cloudy,100,2013-01-11 14:53:00
7:11 AM,30.2,26.6,86,30.23,3.0,ESE,6.9,-,N/A,,Overcast,120,2013-01-11 15:11:00
7:53 AM,30.0,27.0,88,30.25,4.0,SE,3.5,-,N/A,,Mostly Cloudy,130,2013-01-11 15:53:00
8:16 AM,28.4,26.6,93,30.26,5.0,ESE,3.5,-,N/A,,Scattered Clouds,120,2013-01-11 16:16:00
8:53 AM,30.0,27.0,88,30.27,5.0,Calm,Calm,-,N/A,,Scattered Clouds,0,2013-01-11 16:53:00
9:53 AM,32.0,28.9,88,30.29,6.0,Calm,Calm,-,N/A,,Clear,0,2013-01-11 17:53:00
10:53 AM,35.1,27.0,72,30.30,10.0,Calm,Calm,-,N/A,,Partly Cloudy,0,2013-01-11 18:53:00
11:53 AM,35.6,28.4,75,30.30,10.0,NE,6.9,-,N/A,,Partly Cloudy,50,2013-01-11 19:53:00
12:53 PM,35.1,28.0,76,30.31,10.0,Variable,3.5,-,N/A,,Clear,0,2013-01-11 20:53:00
1:53 PM,37.0,25.0,62,30.32,10.0,NE,4.6,-,N/A,,Clear,40,2013-01-11 21:53:00
2:53 PM,37.9,24.1,57,30.31,10.0,Variable,4.6,-,N/A,,Partly Cloudy,0,2013-01-11 22:53:00
3:53 PM,37.9,19.9,48,30.32,10.0,Calm,Calm,-,N/A,,Clear,0,2013-01-11 23:53:00
4:53 PM,36.0,21.9,57,30.32,10.0,Calm,Calm,-,N/A,,Clear,0,2013-01-12 00:53:00
5:53 PM,34.0,23.0,64,30.33,10.0,Calm,Calm,-,N/A,,Clear,0,2013-01-12 01:53:00
6:53 PM,28.9,21.9,75,30.33,10.0,Calm,Calm,-,N/A,,Clear,0,2013-01-12 02:53:00
7:53 PM,32.0,24.1,73,30.32,10.0,Calm,Calm,-,N/A,,Clear,0,2013-01-12 03:53:00
8:53 PM,30.9,25.0,79,30.32,10.0,Calm,Calm,-,N/A,,Clear,0,2013-01-12 04:53:00
9:53 PM,30.0,24.1,79,30.33,10.0,Calm,Calm,-,N/A,,Clear,0,2013-01-12 05:53:00
10:53 PM,30.0,24.1,79,30.33,10.0,Calm,Calm,-,N/A,,Clear,0,2013-01-12 06:53:00
11:53 PM,28.0,24.1,85,30.33,10.0,Calm,Calm,-,N/A,,Clear,0,2013-01-12 07:53:00